CYZH

Slave Lake Airport

Slave Lake, Alberta, Canada
METAR CYZH 220200Z AUTO 17005KT 9SM CLR 03/M03 A3017 RMK SLP245
Observed Flight Rules
Sep-22 @ 02:00 UTC (an hour ago) Visual Flight Rules
Wind Visibility Clouds
170° at 5 knots 9 miles
Temperatures Readings
Current 3°C / 37°F
Dewpoint -3°C / 27°F
Humidity 65%
Altimeter 30.17" Hg
Pressure 1024.5 hPa
Elevation 581
METAR CYZH 220200Z AUTO 17005KT 9SM CLR 03/M03 A3017 RMK SLP245
Observed Flight Rules
Sep-22 @ 02:00 UTC
(an hour ago)
VFR
Wind Visibility
170° at 5 knots 9 miles
Clouds
Temperature Dewpoint
3°C / 37°F -3°C / 27°F
Humidity Altimeter Pressure
65% 30.17" Hg 1024.5 hPa